createdAt,value
2023-04-16T00:01:22.874Z,9.06
2023-04-16T00:03:50.986Z,9.23
2023-04-16T00:06:19.495Z,9.11
2023-04-16T00:08:47.771Z,9.18
2023-04-16T00:11:15.978Z,9.21
2023-04-16T00:13:44.160Z,9.06
2023-04-16T00:16:13.155Z,9.18
2023-04-16T00:18:43.377Z,9.10
2023-04-16T00:21:11.374Z,9.11
2023-04-16T00:23:39.629Z,9.13
2023-04-16T00:26:07.546Z,9.28
2023-04-16T00:28:35.449Z,9.07
2023-04-16T00:31:03.360Z,8.97
2023-04-16T00:33:31.286Z,9.09
2023-04-16T00:36:00.774Z,9.05
2023-04-16T00:38:30.467Z,9.11
2023-04-16T00:40:58.707Z,9.04
2023-04-16T00:43:27.693Z,9.13
2023-04-16T00:45:57.780Z,8.98
2023-04-16T00:48:28.042Z,9.19
2023-04-16T00:50:56.460Z,9.15
2023-04-16T00:53:25.755Z,9.16
2023-04-16T00:55:56.114Z,9.17
2023-04-16T00:58:25.035Z,9.19
2023-04-16T01:00:53.613Z,9.03
2023-04-16T01:03:21.534Z,9.13
2023-04-16T01:05:51.232Z,9.26
2023-04-16T01:08:20.220Z,9.21
2023-04-16T01:10:49.651Z,9.07
2023-04-16T01:13:17.706Z,8.97
2023-04-16T01:15:45.948Z,8.87
2023-04-16T01:18:17.525Z,8.95
2023-04-16T01:20:47.049Z,9.04
2023-04-16T01:23:15.522Z,9.06
2023-04-16T01:25:43.226Z,8.91
2023-04-16T01:28:11.047Z,9.06
2023-04-16T01:30:40.037Z,9.01
2023-04-16T01:33:18.044Z,9.15
2023-04-16T01:35:47.160Z,9.08
2023-04-16T01:38:17.157Z,8.91
2023-04-16T01:40:44.889Z,9.06
2023-04-16T01:43:13.216Z,9.20
2023-04-16T01:45:41.040Z,9.12
2023-04-16T01:48:10.248Z,8.87
2023-04-16T01:50:38.836Z,8.83
2023-04-16T01:53:09.670Z,8.88
2023-04-16T01:55:37.741Z,8.95
2023-04-16T01:58:07.416Z,9.06
2023-04-16T02:00:36.675Z,9.01
2023-04-16T02:03:04.958Z,9.06
2023-04-16T02:05:33.105Z,9.17
2023-04-16T02:08:01.381Z,9.01
2023-04-16T02:10:30.791Z,8.91
2023-04-16T02:12:59.328Z,8.98
2023-04-16T02:15:27.394Z,8.97
2023-04-16T02:17:57.373Z,8.77
2023-04-16T02:20:26.888Z,8.89
2023-04-16T02:23:00.699Z,8.73
2023-04-16T02:25:30.702Z,8.79
2023-04-16T02:28:00.226Z,8.79
2023-04-16T02:30:41.542Z,8.83
2023-04-16T02:33:12.110Z,9.04
2023-04-16T02:35:45.122Z,9.05
2023-04-16T02:38:13.871Z,8.94
2023-04-16T02:40:43.854Z,8.84
2023-04-16T02:43:12.151Z,9.01
2023-04-16T02:45:40.183Z,8.98
2023-04-16T02:48:09.696Z,8.92
2023-04-16T02:50:37.745Z,8.94
2023-04-16T02:53:06.608Z,9.02
2023-04-16T02:55:34.553Z,8.80
2023-04-16T02:58:04.743Z,8.92
2023-04-16T03:00:33.037Z,8.91
2023-04-16T03:03:01.880Z,8.93
2023-04-16T03:05:30.380Z,9.06
2023-04-16T03:07:58.173Z,8.82
2023-04-16T03:10:26.498Z,9.13
2023-04-16T03:12:54.229Z,8.98
2023-04-16T03:15:23.458Z,8.84
2023-04-16T03:17:51.363Z,8.76
2023-04-16T03:20:19.152Z,8.62
2023-04-16T03:22:47.048Z,8.66
2023-04-16T03:25:14.984Z,8.74
2023-04-16T03:27:42.789Z,8.71
2023-04-16T03:30:13.728Z,8.62
2023-04-16T03:32:43.461Z,8.64
2023-04-16T03:35:12.791Z,8.94
2023-04-16T03:37:40.857Z,8.78
2023-04-16T03:40:10.036Z,8.74
2023-04-16T03:42:38.580Z,8.78
2023-04-16T03:45:09.397Z,8.81
2023-04-16T03:47:38.880Z,8.70
2023-04-16T03:50:09.052Z,8.70
2023-04-16T03:52:37.512Z,8.64
2023-04-16T03:55:06.031Z,8.62
2023-04-16T03:58:09.086Z,8.71
2023-04-16T04:00:36.861Z,8.73
2023-04-16T04:03:12.651Z,8.71
2023-04-16T04:05:43.020Z,8.85
2023-04-16T04:08:12.575Z,8.73
2023-04-16T04:10:40.289Z,8.65
2023-04-16T04:13:09.727Z,8.79
2023-04-16T04:15:37.888Z,8.76
2023-04-16T04:18:06.518Z,8.77
2023-04-16T04:20:34.780Z,8.82
2023-04-16T04:23:05.049Z,8.75
2023-04-16T04:25:32.986Z,8.72
2023-04-16T04:28:01.279Z,8.75
2023-04-16T04:30:29.976Z,8.86
2023-04-16T04:32:58.288Z,8.70
2023-04-16T04:35:26.236Z,8.63
2023-04-16T04:37:54.511Z,8.71
2023-04-16T04:40:24.320Z,8.72
2023-04-16T04:42:53.573Z,8.75
2023-04-16T04:45:25.613Z,8.72
2023-04-16T04:47:54.899Z,8.67
2023-04-16T04:50:23.421Z,8.78
2023-04-16T04:52:51.252Z,8.83
2023-04-16T04:55:19.294Z,8.87
2023-04-16T04:57:48.594Z,8.81
2023-04-16T05:00:16.558Z,8.77
2023-04-16T05:02:52.063Z,8.73
2023-04-16T05:05:20.515Z,8.72
2023-04-16T05:07:48.503Z,8.78
2023-04-16T05:10:16.318Z,8.84
2023-04-16T05:12:44.003Z,8.81
2023-04-16T05:15:13.673Z,8.78
2023-04-16T05:17:41.570Z,8.80
2023-04-16T05:20:10.622Z,8.97
2023-04-16T05:22:39.126Z,8.96
2023-04-16T05:25:07.533Z,8.95
2023-04-16T05:27:35.348Z,9.06
2023-04-16T05:30:03.081Z,8.99
2023-04-16T05:32:32.368Z,8.95
2023-04-16T05:35:00.296Z,8.89
2023-04-16T05:37:28.004Z,8.95
2023-04-16T05:39:55.750Z,8.92
2023-04-16T05:42:24.003Z,8.92
2023-04-16T05:44:52.308Z,8.89
2023-04-16T05:47:20.043Z,9.01
2023-04-16T05:49:49.082Z,9.04
2023-04-16T05:52:17.000Z,8.97
2023-04-16T05:54:44.747Z,9.05
2023-04-16T05:57:12.725Z,9.08
2023-04-16T05:59:40.664Z,9.02
2023-04-16T06:02:08.541Z,9.09
2023-04-16T06:04:37.512Z,9.24
2023-04-16T06:07:06.974Z,9.27
2023-04-16T06:09:35.211Z,9.16
2023-04-16T06:12:03.317Z,9.23
2023-04-16T06:14:31.073Z,9.23
2023-04-16T06:16:58.768Z,9.19
2023-04-16T06:19:26.562Z,9.16
2023-04-16T06:21:54.615Z,9.46
2023-04-16T06:24:23.930Z,9.17
2023-04-16T06:26:51.859Z,9.15
2023-04-16T06:29:21.323Z,9.23
2023-04-16T06:31:50.356Z,9.16
2023-04-16T06:34:19.417Z,9.19
2023-04-16T06:36:47.455Z,9.14
2023-04-16T06:39:15.208Z,9.06
2023-04-16T06:41:44.488Z,9.14
2023-04-16T06:44:13.438Z,9.08
2023-04-16T06:46:41.589Z,9.10
2023-04-16T06:49:09.475Z,9.24
2023-04-16T06:51:37.421Z,9.30
2023-04-16T06:54:05.479Z,9.38
2023-04-16T06:56:33.267Z,9.35
2023-04-16T06:59:02.485Z,9.34
2023-04-16T07:01:31.933Z,9.31
2023-04-16T07:03:59.907Z,9.28
2023-04-16T07:06:28.054Z,9.40
2023-04-16T07:08:56.044Z,9.37
2023-04-16T07:11:26.096Z,9.37
2023-04-16T07:13:54.180Z,9.39
2023-04-16T07:16:23.625Z,9.48
2023-04-16T07:18:51.543Z,9.62
2023-04-16T07:21:19.916Z,9.58
2023-04-16T07:23:48.028Z,9.61
2023-04-16T07:26:16.040Z,9.68
2023-04-16T07:28:43.670Z,9.86
2023-04-16T07:31:11.698Z,9.79
2023-04-16T07:33:41.661Z,9.78
2023-04-16T07:36:09.371Z,9.81
2023-04-16T07:38:37.356Z,9.85
2023-04-16T07:41:05.275Z,9.85
2023-04-16T07:43:33.303Z,9.74
2023-04-16T07:46:01.384Z,9.91
2023-04-16T07:48:29.638Z,9.76
2023-04-16T07:50:59.064Z,10.05
2023-04-16T07:53:28.552Z,9.98
2023-04-16T07:55:56.492Z,10.02
2023-04-16T07:58:25.477Z,10.22
2023-04-16T08:00:53.477Z,10.36
2023-04-16T08:03:21.630Z,10.17
2023-04-16T08:05:49.655Z,10.50
2023-04-16T08:08:18.829Z,10.45
2023-04-16T08:10:46.968Z,10.17
2023-04-16T08:13:14.656Z,10.11
2023-04-16T08:15:42.323Z,10.22
2023-04-16T08:18:12.870Z,10.33
2023-04-16T08:20:40.786Z,10.31
2023-04-16T08:23:09.254Z,10.19
2023-04-16T08:25:38.372Z,10.03
2023-04-16T08:28:06.716Z,9.95
2023-04-16T08:30:35.090Z,9.93
2023-04-16T08:33:03.015Z,10.08
2023-04-16T08:35:31.053Z,9.81
2023-04-16T08:38:02.131Z,9.67
2023-04-16T08:40:30.988Z,9.74
2023-04-16T08:43:01.195Z,9.61
2023-04-16T08:45:30.989Z,9.57
2023-04-16T08:47:59.351Z,9.59
2023-04-16T08:50:30.505Z,9.55
2023-04-16T08:53:00.710Z,9.50
2023-04-16T08:55:36.401Z,9.49
2023-04-16T08:58:10.531Z,9.70
2023-04-16T09:00:41.190Z,9.65
2023-04-16T09:03:10.276Z,9.54
2023-04-16T09:05:39.040Z,9.62
2023-04-16T09:08:07.736Z,9.53
2023-04-16T09:10:36.409Z,9.45
2023-04-16T09:13:06.125Z,9.38
2023-04-16T09:15:36.619Z,9.37
2023-04-16T09:18:04.636Z,9.39
2023-04-16T09:20:33.305Z,9.46
2023-04-16T09:23:01.315Z,9.50
2023-04-16T09:25:30.365Z,9.43
2023-04-16T09:27:58.799Z,9.49
2023-04-16T09:30:28.877Z,9.49
2023-04-16T09:33:16.521Z,9.48
2023-04-16T09:35:48.678Z,9.45
2023-04-16T09:38:17.349Z,9.41
2023-04-16T09:40:47.385Z,9.47
2023-04-16T09:43:16.929Z,9.42
2023-04-16T09:45:56.515Z,9.36
2023-04-16T09:48:31.467Z,9.40
2023-04-16T09:51:00.515Z,9.40
2023-04-16T09:53:30.675Z,9.45
2023-04-16T09:55:59.201Z,9.48
2023-04-16T09:58:27.536Z,9.52
2023-04-16T10:01:02.418Z,9.70
2023-04-16T10:03:31.781Z,9.61
2023-04-16T10:06:02.284Z,9.67
2023-04-16T10:08:30.658Z,9.68
2023-04-16T10:10:59.214Z,9.66
2023-04-16T10:13:31.552Z,9.59
2023-04-16T10:16:01.653Z,9.79
2023-04-16T10:18:30.592Z,9.74
2023-04-16T10:20:58.826Z,9.84
2023-04-16T10:23:28.277Z,9.82
2023-04-16T10:26:01.117Z,9.80
2023-04-16T10:28:29.529Z,9.96
2023-04-16T10:30:59.432Z,9.89
2023-04-16T10:33:30.776Z,10.14
2023-04-16T10:36:12.085Z,10.19
2023-04-16T10:38:41.375Z,10.41
2023-04-16T10:41:10.011Z,10.05
2023-04-16T10:43:42.586Z,9.96
2023-04-16T10:46:21.745Z,10.12
2023-04-16T10:48:54.702Z,10.07
2023-04-16T10:51:31.607Z,10.38
2023-04-16T10:54:04.972Z,10.06
2023-04-16T10:56:35.118Z,10.02
2023-04-16T10:59:06.149Z,9.96
2023-04-16T11:01:39.667Z,10.17
2023-04-16T11:04:31.220Z,10.11
2023-04-16T11:07:04.291Z,10.37
2023-04-16T11:09:53.549Z,10.25
2023-04-16T11:12:23.116Z,10.28
2023-04-16T11:14:52.429Z,10.24
2023-04-16T11:17:21.062Z,10.37
2023-04-16T11:19:59.137Z,10.39
2023-04-16T11:22:28.620Z,10.50
2023-04-16T11:24:57.295Z,10.46
2023-04-16T11:27:25.577Z,10.58
2023-04-16T11:30:01.921Z,10.57
2023-04-16T11:32:32.423Z,10.56
2023-04-16T11:35:04.354Z,10.53
2023-04-16T11:37:36.163Z,10.74
2023-04-16T11:40:10.789Z,10.55
2023-04-16T11:42:41.977Z,10.58
2023-04-16T11:45:12.089Z,10.70
2023-04-16T11:47:47.811Z,10.98
2023-04-16T11:50:22.464Z,10.76
2023-04-16T11:52:51.871Z,10.82
2023-04-16T11:55:20.617Z,10.79
2023-04-16T11:57:49.175Z,10.83
2023-04-16T12:00:21.783Z,10.98
2023-04-16T12:02:55.885Z,11.13
2023-04-16T12:05:31.006Z,11.20
2023-04-16T12:07:59.823Z,11.40
2023-04-16T12:10:28.553Z,11.49
2023-04-16T12:13:10.346Z,11.56
2023-04-16T12:15:47.479Z,11.79
2023-04-16T12:18:16.262Z,12.02
2023-04-16T12:20:46.934Z,12.33
2023-04-16T12:23:25.444Z,12.16
2023-04-16T12:25:53.931Z,12.12
2023-04-16T12:28:30.091Z,12.00
2023-04-16T12:30:59.339Z,11.82
2023-04-16T12:33:28.318Z,11.89
2023-04-16T12:35:58.545Z,11.75
2023-04-16T12:38:27.110Z,11.67
2023-04-16T12:40:57.512Z,11.50
2023-04-16T12:43:26.000Z,11.76
2023-04-16T12:45:53.993Z,12.05
2023-04-16T12:48:21.884Z,11.91
2023-04-16T12:50:50.510Z,12.03
2023-04-16T12:53:20.538Z,12.03
2023-04-16T12:55:49.530Z,12.29
2023-04-16T12:58:17.943Z,11.93
2023-04-16T13:00:52.413Z,11.73
2023-04-16T13:03:22.277Z,11.71
2023-04-16T13:05:51.929Z,11.80
2023-04-16T13:08:21.752Z,11.78
2023-04-16T13:10:54.779Z,11.67
2023-04-16T13:13:23.131Z,11.40
2023-04-16T13:15:54.424Z,11.47
2023-04-16T13:18:23.107Z,11.33
2023-04-16T13:20:52.736Z,11.24
2023-04-16T13:23:23.203Z,11.59
2023-04-16T13:25:52.314Z,11.43
2023-04-16T13:28:20.149Z,11.40
2023-04-16T13:30:48.854Z,11.43
2023-04-16T13:33:17.607Z,11.27
2023-04-16T13:35:46.400Z,11.52
2023-04-16T13:38:14.259Z,11.51
2023-04-16T13:40:52.587Z,11.28
2023-04-16T13:43:23.900Z,11.15
2023-04-16T13:45:54.285Z,11.07
2023-04-16T13:48:22.548Z,11.11
2023-04-16T13:50:50.640Z,11.04
2023-04-16T13:53:18.859Z,10.93
2023-04-16T13:55:49.662Z,10.98
2023-04-16T13:58:17.878Z,11.05
2023-04-16T14:00:48.939Z,10.94
2023-04-16T14:03:17.457Z,10.90
2023-04-16T14:05:45.525Z,11.02
2023-04-16T14:08:14.933Z,10.88
2023-04-16T14:10:42.969Z,10.87
2023-04-16T14:13:13.374Z,10.84
2023-04-16T14:15:41.850Z,10.83
2023-04-16T14:18:10.260Z,10.82
2023-04-16T14:20:41.084Z,10.87
2023-04-16T14:23:09.176Z,10.85
2023-04-16T14:25:38.736Z,10.85
2023-04-16T14:28:08.962Z,10.86
2023-04-16T14:30:38.399Z,10.95
2023-04-16T14:33:07.495Z,10.98
2023-04-16T14:35:36.131Z,11.01
2023-04-16T14:38:04.208Z,10.96
2023-04-16T14:40:33.352Z,10.99
2023-04-16T14:43:02.183Z,11.08
2023-04-16T14:45:32.297Z,11.10
2023-04-16T14:48:01.632Z,11.22
2023-04-16T14:50:29.781Z,11.28
2023-04-16T14:52:58.583Z,11.33
2023-04-16T14:55:27.447Z,11.27
2023-04-16T14:57:56.573Z,11.30
2023-04-16T15:00:26.382Z,11.20
2023-04-16T15:02:55.095Z,11.16
2023-04-16T15:05:24.608Z,11.21
2023-04-16T15:07:53.005Z,11.31
2023-04-16T15:10:26.491Z,11.41
2023-04-16T15:12:56.893Z,11.44
2023-04-16T15:15:24.910Z,11.46
2023-04-16T15:17:53.093Z,11.45
2023-04-16T15:20:21.006Z,11.37
2023-04-16T15:22:50.947Z,11.31
2023-04-16T15:25:18.980Z,11.34
2023-04-16T15:27:47.158Z,11.46
2023-04-16T15:30:31.819Z,11.47
2023-04-16T15:33:01.534Z,11.50
2023-04-16T15:35:30.397Z,11.54
2023-04-16T15:37:59.810Z,11.61
2023-04-16T15:40:31.494Z,11.63
2023-04-16T15:42:59.734Z,11.65
2023-04-16T15:45:28.227Z,11.57
2023-04-16T15:47:56.603Z,11.64
2023-04-16T15:50:31.338Z,11.63
2023-04-16T15:53:01.782Z,11.64
2023-04-16T15:55:31.970Z,11.62
2023-04-16T15:58:00.265Z,11.59
2023-04-16T16:00:29.129Z,11.52
2023-04-16T16:02:57.389Z,11.45
2023-04-16T16:05:25.712Z,11.39
2023-04-16T16:07:54.137Z,11.35
2023-04-16T16:10:33.187Z,11.34
2023-04-16T16:13:06.117Z,11.35
2023-04-16T16:15:34.154Z,11.35
2023-04-16T16:18:02.237Z,11.34
2023-04-16T16:20:30.728Z,11.33
2023-04-16T16:22:58.936Z,11.31
2023-04-16T16:25:29.085Z,11.22
2023-04-16T16:27:56.996Z,11.24
2023-04-16T16:30:33.037Z,11.35
2023-04-16T16:33:03.094Z,11.31
2023-04-16T16:35:31.295Z,11.34
2023-04-16T16:37:59.407Z,11.25
2023-04-16T16:40:29.514Z,11.09
2023-04-16T16:42:57.801Z,11.10
2023-04-16T16:45:27.179Z,11.02
2023-04-16T16:47:55.463Z,11.06
2023-04-16T16:50:24.567Z,11.11
2023-04-16T16:52:52.440Z,11.18
2023-04-16T16:55:20.928Z,11.21
2023-04-16T16:57:50.348Z,11.21
2023-04-16T17:00:21.378Z,11.25
2023-04-16T17:02:51.130Z,11.30
2023-04-16T17:05:19.819Z,11.27
2023-04-16T17:07:48.646Z,11.28
2023-04-16T17:10:20.269Z,11.31
2023-04-16T17:12:48.336Z,11.31
2023-04-16T17:15:20.591Z,11.30
2023-04-16T17:17:49.559Z,11.32
2023-04-16T17:20:18.039Z,11.25
2023-04-16T17:22:46.757Z,11.16
2023-04-16T17:25:15.119Z,11.13
2023-04-16T17:27:43.468Z,11.13
2023-04-16T17:30:13.223Z,11.12
2023-04-16T17:32:42.772Z,11.09
2023-04-16T17:35:11.350Z,11.10
2023-04-16T17:37:39.464Z,11.11
2023-04-16T17:40:10.109Z,11.10
2023-04-16T17:42:38.794Z,11.05
2023-04-16T17:45:10.869Z,11.04
2023-04-16T17:47:39.772Z,11.02
2023-04-16T17:50:10.515Z,10.96
2023-04-16T17:52:40.438Z,10.92
2023-04-16T17:55:09.404Z,10.90
2023-04-16T17:57:37.389Z,10.88
2023-04-16T18:00:10.854Z,10.88
2023-04-16T18:02:41.964Z,10.87
2023-04-16T18:05:12.117Z,10.87
2023-04-16T18:07:40.312Z,10.86
2023-04-16T18:10:09.985Z,10.86
2023-04-16T18:12:38.197Z,10.83
2023-04-16T18:15:07.051Z,10.81
2023-04-16T18:17:35.277Z,10.77
2023-04-16T18:20:05.575Z,10.74
2023-04-16T18:22:35.118Z,10.76
2023-04-16T18:25:03.545Z,10.78
2023-04-16T18:27:34.376Z,10.77
2023-04-16T18:30:04.343Z,10.76
2023-04-16T18:32:33.264Z,10.75
2023-04-16T18:35:02.093Z,10.74
2023-04-16T18:37:30.423Z,10.72
2023-04-16T18:39:59.666Z,10.72
2023-04-16T18:42:29.375Z,10.74
2023-04-16T18:44:57.300Z,10.73
2023-04-16T18:47:26.517Z,10.70
2023-04-16T18:49:54.948Z,10.67
2023-04-16T18:52:22.948Z,10.63
2023-04-16T18:54:51.466Z,10.57
2023-04-16T18:57:21.030Z,10.57
2023-04-16T18:59:48.816Z,10.54
2023-04-16T19:02:17.123Z,10.55
2023-04-16T19:04:45.171Z,10.52
2023-04-16T19:07:13.547Z,10.51
2023-04-16T19:09:41.816Z,10.45
2023-04-16T19:12:10.414Z,10.46
2023-04-16T19:14:39.893Z,10.45
2023-04-16T19:17:07.702Z,10.40
2023-04-16T19:19:37.819Z,10.37
2023-04-16T19:22:08.432Z,10.34
2023-04-16T19:24:36.514Z,10.30
2023-04-16T19:27:04.523Z,10.26
2023-04-16T19:29:34.212Z,10.23
2023-04-16T19:32:03.952Z,10.23
2023-04-16T19:34:32.944Z,10.18
2023-04-16T19:37:01.817Z,10.16
2023-04-16T19:39:30.274Z,10.17
2023-04-16T19:42:01.748Z,10.16
2023-04-16T19:44:30.825Z,10.13
2023-04-16T19:46:59.080Z,10.12
2023-04-16T19:49:34.763Z,10.09
2023-04-16T19:52:02.890Z,10.06
2023-04-16T19:54:33.780Z,10.08
2023-04-16T19:57:01.721Z,10.04
2023-04-16T19:59:29.802Z,10.01
2023-04-16T20:01:58.168Z,10.01
2023-04-16T20:04:26.559Z,10.01
2023-04-16T20:06:57.986Z,10.01
2023-04-16T20:09:26.387Z,10.01
2023-04-16T20:11:54.384Z,10.00
2023-04-16T20:14:22.465Z,10.02
2023-04-16T20:16:50.747Z,9.99
2023-04-16T20:19:19.562Z,10.02
2023-04-16T20:21:48.199Z,9.98
2023-04-16T20:24:17.811Z,9.98
2023-04-16T20:26:45.933Z,9.96
2023-04-16T20:29:14.786Z,9.96
2023-04-16T20:31:44.557Z,9.95
2023-04-16T20:34:12.909Z,9.91
2023-04-16T20:36:42.024Z,9.95
2023-04-16T20:39:10.988Z,9.90
2023-04-16T20:41:44.386Z,9.89
2023-04-16T20:44:18.382Z,9.84
2023-04-16T20:46:50.125Z,9.90
2023-04-16T20:49:19.052Z,9.88
2023-04-16T20:51:47.461Z,9.81
2023-04-16T20:54:18.339Z,9.84
2023-04-16T20:56:47.691Z,9.77
2023-04-16T20:59:15.681Z,9.84
2023-04-16T21:01:44.045Z,9.78
2023-04-16T21:04:13.702Z,9.80
2023-04-16T21:06:43.179Z,9.81
2023-04-16T21:09:11.768Z,9.78
2023-04-16T21:11:40.214Z,9.77
2023-04-16T21:14:09.510Z,9.79
2023-04-16T21:16:37.432Z,9.79
2023-04-16T21:19:06.916Z,9.72
2023-04-16T21:21:35.776Z,9.73
2023-04-16T21:24:03.867Z,9.72
2023-04-16T21:26:33.934Z,9.72
2023-04-16T21:29:02.265Z,9.71
2023-04-16T21:31:32.368Z,9.69
2023-04-16T21:34:00.602Z,9.63
2023-04-16T21:36:29.228Z,9.61
2023-04-16T21:38:57.483Z,9.63
2023-04-16T21:41:25.654Z,9.63
2023-04-16T21:43:53.542Z,9.56
2023-04-16T21:46:21.608Z,9.65
2023-04-16T21:48:51.442Z,9.57
2023-04-16T21:51:20.188Z,9.75
2023-04-16T21:53:47.883Z,9.65
2023-04-16T21:56:15.889Z,9.66
2023-04-16T21:58:43.612Z,9.59
2023-04-16T22:01:11.374Z,9.55
2023-04-16T22:03:40.887Z,9.56
2023-04-16T22:06:10.172Z,9.60
2023-04-16T22:08:37.963Z,9.53
2023-04-16T22:11:05.858Z,9.61
2023-04-16T22:13:33.981Z,9.53
2023-04-16T22:16:02.314Z,9.50
2023-04-16T22:18:33.828Z,9.55
2023-04-16T22:21:02.865Z,9.51
2023-04-16T22:23:31.871Z,9.45
2023-04-16T22:25:59.641Z,9.45
2023-04-16T22:28:27.664Z,9.40
2023-04-16T22:30:55.388Z,9.45
2023-04-16T22:33:23.753Z,9.47
2023-04-16T22:35:51.650Z,9.45
2023-04-16T22:38:19.640Z,9.45
2023-04-16T22:40:49.713Z,9.47
2023-04-16T22:43:17.995Z,9.50
2023-04-16T22:45:47.217Z,9.49
2023-04-16T22:48:15.480Z,9.44
2023-04-16T22:50:48.295Z,9.42
2023-04-16T22:53:16.264Z,9.41
2023-04-16T22:55:44.540Z,9.46
2023-04-16T22:58:13.923Z,9.40
2023-04-16T23:00:41.857Z,9.37
2023-04-16T23:03:10.027Z,9.37
2023-04-16T23:05:38.691Z,9.42
2023-04-16T23:08:07.098Z,9.39
2023-04-16T23:10:35.090Z,9.39
2023-04-16T23:13:16.956Z,9.37
2023-04-16T23:15:47.323Z,9.44
2023-04-16T23:18:15.443Z,9.36
2023-04-16T23:20:43.156Z,9.56
2023-04-16T23:23:11.122Z,9.37
2023-04-16T23:25:39.144Z,9.31
2023-04-16T23:28:06.780Z,9.36
2023-04-16T23:30:35.257Z,9.36
2023-04-16T23:33:04.343Z,9.31
2023-04-16T23:35:32.244Z,9.37
2023-04-16T23:38:00.426Z,9.32
2023-04-16T23:40:28.352Z,9.32
2023-04-16T23:42:56.054Z,9.24
2023-04-16T23:45:23.822Z,9.33
2023-04-16T23:47:51.874Z,9.26
2023-04-16T23:50:21.184Z,9.24
2023-04-16T23:52:49.277Z,9.27
2023-04-16T23:55:17.089Z,9.19
2023-04-16T23:57:45.516Z,9.16
